sensor_id;sensor_type;location;lat;lon;timestamp;pressure;altitude;pressure_sealevel;temperature;humidity
76496;BME280;65329;52.544;4.662;2023-05-10T00:00:39;-18597.69;;;-139.74;0.00
76496;BME280;65329;52.544;4.662;2023-05-10T00:03:06;-18597.69;;;-139.74;0.00
76496;BME280;65329;52.544;4.662;2023-05-10T00:05:33;-18597.69;;;-139.74;0.00
76496;BME280;65329;52.544;4.662;2023-05-10T00:08:01;-18597.69;;;-139.74;0.00
76496;BME280;65329;52.544;4.662;2023-05-10T00:10:27;-18597.69;;;-139.74;0.00
76496;BME280;65329;52.544;4.662;2023-05-10T00:12:55;-18597.69;;;-139.74;0.00
76496;BME280;65329;52.544;4.662;2023-05-10T00:15:22;-18597.69;;;-139.74;0.00
76496;BME280;65329;52.544;4.662;2023-05-10T00:17:49;-18597.69;;;-139.74;0.00
76496;BME280;65329;52.544;4.662;2023-05-10T00:20:16;-18597.69;;;-139.74;0.00
76496;BME280;65329;52.544;4.662;2023-05-10T00:22:43;-18597.69;;;-139.74;0.00
76496;BME280;65329;52.544;4.662;2023-05-10T00:25:10;-18597.69;;;-139.74;0.00
76496;BME280;65329;52.544;4.662;2023-05-10T00:27:37;-18597.69;;;-139.74;0.00
76496;BME280;65329;52.544;4.662;2023-05-10T00:30:04;-18597.69;;;-139.74;0.00
76496;BME280;65329;52.544;4.662;2023-05-10T00:32:32;-18597.69;;;-139.74;0.00
76496;BME280;65329;52.544;4.662;2023-05-10T00:34:59;-18597.69;;;-139.74;0.00
76496;BME280;65329;52.544;4.662;2023-05-10T00:37:26;-18597.69;;;-139.74;0.00
76496;BME280;65329;52.544;4.662;2023-05-10T00:39:53;-18597.69;;;-139.74;0.00
76496;BME280;65329;52.544;4.662;2023-05-10T00:42:21;-18597.69;;;-139.74;0.00
76496;BME280;65329;52.544;4.662;2023-05-10T00:44:48;-18597.69;;;-139.74;0.00
76496;BME280;65329;52.544;4.662;2023-05-10T00:47:15;-18597.69;;;-139.74;0.00
76496;BME280;65329;52.544;4.662;2023-05-10T00:49:44;-18597.69;;;-139.74;0.00
76496;BME280;65329;52.544;4.662;2023-05-10T00:52:11;-18597.69;;;-139.74;0.00
76496;BME280;65329;52.544;4.662;2023-05-10T00:54:38;-18597.69;;;-139.74;0.00
76496;BME280;65329;52.544;4.662;2023-05-10T00:57:05;-18597.69;;;-139.74;0.00
76496;BME280;65329;52.544;4.662;2023-05-10T00:59:32;-18597.69;;;-139.74;0.00
76496;BME280;65329;52.544;4.662;2023-05-10T01:01:59;-18597.69;;;-139.74;0.00
76496;BME280;65329;52.544;4.662;2023-05-10T01:04:28;-18597.69;;;-139.74;0.00
76496;BME280;65329;52.544;4.662;2023-05-10T01:06:56;-18597.69;;;-139.74;0.00
76496;BME280;65329;52.544;4.662;2023-05-10T01:09:24;-18597.69;;;-139.74;0.00
76496;BME280;65329;52.544;4.662;2023-05-10T01:11:53;-18597.69;;;-139.74;0.00
76496;BME280;65329;52.544;4.662;2023-05-10T01:14:21;-18597.69;;;-139.74;0.00
76496;BME280;65329;52.544;4.662;2023-05-10T01:16:49;-18597.69;;;-139.74;0.00
76496;BME280;65329;52.544;4.662;2023-05-10T01:19:22;-18597.69;;;-139.74;0.00
76496;BME280;65329;52.544;4.662;2023-05-10T01:41:55;-18597.69;;;-139.74;0.00
76496;BME280;65329;52.544;4.662;2023-05-10T01:44:35;-18597.69;;;-139.74;0.00
76496;BME280;65329;52.544;4.662;2023-05-10T01:47:12;-18597.69;;;-139.74;0.00
76496;BME280;65329;52.544;4.662;2023-05-10T01:49:47;-18597.69;;;-139.74;0.00
76496;BME280;65329;52.544;4.662;2023-05-10T01:52:18;-18597.69;;;-139.74;0.00
76496;BME280;65329;52.544;4.662;2023-05-10T01:54:54;-18597.69;;;-139.74;0.00
76496;BME280;65329;52.544;4.662;2023-05-10T01:57:25;-18597.69;;;-139.74;0.00
76496;BME280;65329;52.544;4.662;2023-05-10T01:59:54;-18597.69;;;-139.74;0.00
76496;BME280;65329;52.544;4.662;2023-05-10T02:02:22;-18597.69;;;-139.74;0.00
76496;BME280;65329;52.544;4.662;2023-05-10T02:04:51;-18597.69;;;-139.74;0.00
76496;BME280;65329;52.544;4.662;2023-05-10T02:07:20;-18597.69;;;-139.74;0.00
76496;BME280;65329;52.544;4.662;2023-05-10T02:09:48;-18597.69;;;-139.74;0.00
76496;BME280;65329;52.544;4.662;2023-05-10T02:12:16;-18597.69;;;-139.74;0.00
76496;BME280;65329;52.544;4.662;2023-05-10T02:14:44;-18597.69;;;-139.74;0.00
76496;BME280;65329;52.544;4.662;2023-05-10T02:17:12;-18597.69;;;-139.74;0.00
76496;BME280;65329;52.544;4.662;2023-05-10T02:19:41;-18597.69;;;-139.74;0.00
76496;BME280;65329;52.544;4.662;2023-05-10T02:22:10;-18597.69;;;-139.74;0.00
76496;BME280;65329;52.544;4.662;2023-05-10T02:24:39;-18597.69;;;-139.74;0.00
76496;BME280;65329;52.544;4.662;2023-05-10T02:27:07;-18597.69;;;-139.74;0.00
76496;BME280;65329;52.544;4.662;2023-05-10T02:29:36;-18597.69;;;-139.74;0.00
76496;BME280;65329;52.544;4.662;2023-05-10T02:32:04;-18597.69;;;-139.74;0.00
76496;BME280;65329;52.544;4.662;2023-05-10T02:34:33;-18597.69;;;-139.74;0.00
76496;BME280;65329;52.544;4.662;2023-05-10T02:37:02;-18597.69;;;-139.74;0.00
76496;BME280;65329;52.544;4.662;2023-05-10T02:39:29;-18597.69;;;-139.74;0.00
76496;BME280;65329;52.544;4.662;2023-05-10T02:41:58;-18597.69;;;-139.74;0.00
76496;BME280;65329;52.544;4.662;2023-05-10T02:44:28;-18597.69;;;-139.74;0.00
76496;BME280;65329;52.544;4.662;2023-05-10T02:46:57;-18597.69;;;-139.74;0.00
76496;BME280;65329;52.544;4.662;2023-05-10T02:49:25;-18597.69;;;-139.74;0.00
76496;BME280;65329;52.544;4.662;2023-05-10T02:51:57;-18597.69;;;-139.74;0.00
76496;BME280;65329;52.544;4.662;2023-05-10T02:54:30;-18597.69;;;-139.74;0.00
76496;BME280;65329;52.544;4.662;2023-05-10T02:57:00;-18597.69;;;-139.74;0.00
76496;BME280;65329;52.544;4.662;2023-05-10T02:59:28;-18597.69;;;-139.74;0.00
76496;BME280;65329;52.544;4.662;2023-05-10T03:01:55;-18597.69;;;-139.74;0.00
76496;BME280;65329;52.544;4.662;2023-05-10T03:04:22;-18597.69;;;-139.74;0.00
76496;BME280;65329;52.544;4.662;2023-05-10T03:06:50;-18597.69;;;-139.74;0.00
76496;BME280;65329;52.544;4.662;2023-05-10T03:09:17;-18597.69;;;-139.74;0.00
76496;BME280;65329;52.544;4.662;2023-05-10T03:12:04;-18597.69;;;-139.74;0.00
76496;BME280;65329;52.544;4.662;2023-05-10T03:14:56;-18597.69;;;-139.74;0.00
76496;BME280;65329;52.544;4.662;2023-05-10T03:20:07;-18597.69;;;-139.74;0.00
76496;BME280;65329;52.544;4.662;2023-05-10T03:22:40;-18597.69;;;-139.74;0.00
76496;BME280;65329;52.544;4.662;2023-05-10T03:25:10;-18597.69;;;-139.74;0.00
76496;BME280;65329;52.544;4.662;2023-05-10T03:27:41;-18597.69;;;-139.74;0.00
76496;BME280;65329;52.544;4.662;2023-05-10T03:30:13;-18597.69;;;-139.74;0.00
76496;BME280;65329;52.544;4.662;2023-05-10T03:32:41;-18597.69;;;-139.74;0.00
76496;BME280;65329;52.544;4.662;2023-05-10T03:35:12;-18597.69;;;-139.74;0.00
76496;BME280;65329;52.544;4.662;2023-05-10T03:37:40;-18597.69;;;-139.74;0.00
76496;BME280;65329;52.544;4.662;2023-05-10T03:40:09;-18597.69;;;-139.74;0.00
76496;BME280;65329;52.544;4.662;2023-05-10T03:42:39;-18597.69;;;-139.74;0.00
76496;BME280;65329;52.544;4.662;2023-05-10T03:45:06;-18597.69;;;-139.74;0.00
76496;BME280;65329;52.544;4.662;2023-05-10T03:47:34;-18597.69;;;-139.74;0.00
76496;BME280;65329;52.544;4.662;2023-05-10T03:50:01;-18597.69;;;-139.74;0.00
76496;BME280;65329;52.544;4.662;2023-05-10T03:52:29;-18597.69;;;-139.74;0.00
76496;BME280;65329;52.544;4.662;2023-05-10T03:54:56;-18597.69;;;-139.74;0.00
76496;BME280;65329;52.544;4.662;2023-05-10T03:57:23;-18597.69;;;-139.74;0.00
76496;BME280;65329;52.544;4.662;2023-05-10T03:59:50;-18597.69;;;-139.74;0.00
76496;BME280;65329;52.544;4.662;2023-05-10T04:02:17;-18597.69;;;-139.74;0.00
76496;BME280;65329;52.544;4.662;2023-05-10T04:04:45;-18597.69;;;-139.74;0.00
76496;BME280;65329;52.544;4.662;2023-05-10T04:07:12;-18597.69;;;-139.74;0.00
76496;BME280;65329;52.544;4.662;2023-05-10T04:09:39;-18597.69;;;-139.74;0.00
76496;BME280;65329;52.544;4.662;2023-05-10T04:12:06;-18597.69;;;-139.74;0.00
76496;BME280;65329;52.544;4.662;2023-05-10T04:14:36;-18597.69;;;-139.74;0.00
76496;BME280;65329;52.544;4.662;2023-05-10T04:17:03;-18597.69;;;-139.74;0.00
76496;BME280;65329;52.544;4.662;2023-05-10T04:19:31;-18597.69;;;-139.74;0.00
76496;BME280;65329;52.544;4.662;2023-05-10T04:21:59;-18597.69;;;-139.74;0.00
76496;BME280;65329;52.544;4.662;2023-05-10T04:24:26;-18597.69;;;-139.74;0.00
76496;BME280;65329;52.544;4.662;2023-05-10T04:26:54;-18597.69;;;-139.74;0.00
76496;BME280;65329;52.544;4.662;2023-05-10T04:29:23;-18597.69;;;-139.74;0.00
76496;BME280;65329;52.544;4.662;2023-05-10T04:31:50;-18597.69;;;-139.74;0.00
76496;BME280;65329;52.544;4.662;2023-05-10T04:34:17;-18597.69;;;-139.74;0.00
76496;BME280;65329;52.544;4.662;2023-05-10T04:36:44;-18597.69;;;-139.74;0.00
76496;BME280;65329;52.544;4.662;2023-05-10T04:39:11;-18597.69;;;-139.74;0.00
76496;BME280;65329;52.544;4.662;2023-05-10T04:41:38;-18597.69;;;-139.74;0.00
76496;BME280;65329;52.544;4.662;2023-05-10T04:44:05;-18597.69;;;-139.74;0.00
76496;BME280;65329;52.544;4.662;2023-05-10T04:46:32;-18597.69;;;-139.74;0.00
76496;BME280;65329;52.544;4.662;2023-05-10T04:49:00;-18597.69;;;-139.74;0.00
76496;BME280;65329;52.544;4.662;2023-05-10T04:51:26;-18597.69;;;-139.74;0.00
76496;BME280;65329;52.544;4.662;2023-05-10T04:53:53;-18597.69;;;-139.74;0.00
76496;BME280;65329;52.544;4.662;2023-05-10T04:56:31;-18597.69;;;-139.74;0.00
76496;BME280;65329;52.544;4.662;2023-05-10T04:58:58;-18597.69;;;-139.74;0.00
76496;BME280;65329;52.544;4.662;2023-05-10T05:01:25;-18597.69;;;-139.74;0.00
76496;BME280;65329;52.544;4.662;2023-05-10T05:03:52;-18597.69;;;-139.74;0.00
76496;BME280;65329;52.544;4.662;2023-05-10T05:06:20;-18597.69;;;-139.74;0.00
76496;BME280;65329;52.544;4.662;2023-05-10T05:08:47;-18597.69;;;-139.74;0.00
76496;BME280;65329;52.544;4.662;2023-05-10T05:11:16;-18597.69;;;-139.74;0.00
76496;BME280;65329;52.544;4.662;2023-05-10T05:13:43;-18597.69;;;-139.74;0.00
76496;BME280;65329;52.544;4.662;2023-05-10T05:16:10;-18597.69;;;-139.74;0.00
76496;BME280;65329;52.544;4.662;2023-05-10T05:18:40;-18597.69;;;-139.74;0.00
76496;BME280;65329;52.544;4.662;2023-05-10T05:21:17;-18597.69;;;-139.74;0.00
76496;BME280;65329;52.544;4.662;2023-05-10T05:23:44;-18597.69;;;-139.74;0.00
76496;BME280;65329;52.544;4.662;2023-05-10T05:26:12;-18597.69;;;-139.74;0.00
76496;BME280;65329;52.544;4.662;2023-05-10T05:28:38;-18597.69;;;-139.74;0.00
76496;BME280;65329;52.544;4.662;2023-05-10T05:31:08;-18597.69;;;-139.74;0.00
76496;BME280;65329;52.544;4.662;2023-05-10T05:33:36;-18597.69;;;-139.74;0.00
76496;BME280;65329;52.544;4.662;2023-05-10T05:36:04;-18597.69;;;-139.74;0.00
76496;BME280;65329;52.544;4.662;2023-05-10T05:38:31;-18597.69;;;-139.74;0.00
76496;BME280;65329;52.544;4.662;2023-05-10T05:40:58;-18597.69;;;-139.74;0.00
76496;BME280;65329;52.544;4.662;2023-05-10T05:43:25;-18597.69;;;-139.74;0.00
76496;BME280;65329;52.544;4.662;2023-05-10T05:45:52;-18597.69;;;-139.74;0.00
76496;BME280;65329;52.544;4.662;2023-05-10T05:48:20;-18597.69;;;-139.74;0.00
76496;BME280;65329;52.544;4.662;2023-05-10T05:50:47;-18597.69;;;-139.74;0.00
76496;BME280;65329;52.544;4.662;2023-05-10T05:53:14;-18597.69;;;-139.74;0.00
76496;BME280;65329;52.544;4.662;2023-05-10T05:55:56;-18597.69;;;-139.74;0.00
76496;BME280;65329;52.544;4.662;2023-05-10T05:58:24;-18597.69;;;-139.74;0.00
76496;BME280;65329;52.544;4.662;2023-05-10T06:00:52;-18597.69;;;-139.74;0.00
76496;BME280;65329;52.544;4.662;2023-05-10T06:03:20;-18597.69;;;-139.74;0.00
76496;BME280;65329;52.544;4.662;2023-05-10T06:05:47;-18597.69;;;-139.74;0.00
76496;BME280;65329;52.544;4.662;2023-05-10T06:08:14;-18597.69;;;-139.74;0.00
76496;BME280;65329;52.544;4.662;2023-05-10T06:10:41;-18597.69;;;-139.74;0.00
76496;BME280;65329;52.544;4.662;2023-05-10T06:13:08;-18597.69;;;-139.74;0.00
76496;BME280;65329;52.544;4.662;2023-05-10T06:15:35;-18597.69;;;-139.74;0.00
76496;BME280;65329;52.544;4.662;2023-05-10T06:18:02;-18597.69;;;-139.74;0.00
76496;BME280;65329;52.544;4.662;2023-05-10T06:20:29;-18597.69;;;-139.74;0.00
76496;BME280;65329;52.544;4.662;2023-05-10T06:22:58;-18597.69;;;-139.74;0.00
76496;BME280;65329;52.544;4.662;2023-05-10T06:25:25;-18597.69;;;-139.74;0.00
76496;BME280;65329;52.544;4.662;2023-05-10T06:27:53;-18597.69;;;-139.74;0.00
76496;BME280;65329;52.544;4.662;2023-05-10T06:30:25;-18597.69;;;-139.74;0.00
76496;BME280;65329;52.544;4.662;2023-05-10T06:32:55;-18597.69;;;-139.74;0.00
76496;BME280;65329;52.544;4.662;2023-05-10T06:35:22;-18597.69;;;-139.74;0.00
76496;BME280;65329;52.544;4.662;2023-05-10T06:37:49;-18597.69;;;-139.74;0.00
76496;BME280;65329;52.544;4.662;2023-05-10T06:40:16;-18597.69;;;-139.74;0.00
76496;BME280;65329;52.544;4.662;2023-05-10T06:42:46;-18597.69;;;-139.74;0.00
76496;BME280;65329;52.544;4.662;2023-05-10T06:45:14;-18597.69;;;-139.74;0.00
76496;BME280;65329;52.544;4.662;2023-05-10T06:47:41;-18597.69;;;-139.74;0.00
76496;BME280;65329;52.544;4.662;2023-05-10T06:50:09;-18597.69;;;-139.74;0.00
76496;BME280;65329;52.544;4.662;2023-05-10T06:52:36;-18597.69;;;-139.74;0.00
76496;BME280;65329;52.544;4.662;2023-05-10T06:55:04;-18597.69;;;-139.74;0.00
76496;BME280;65329;52.544;4.662;2023-05-10T06:57:31;-18597.69;;;-139.74;0.00
76496;BME280;65329;52.544;4.662;2023-05-10T06:59:58;-18597.69;;;-139.74;0.00
76496;BME280;65329;52.544;4.662;2023-05-10T07:02:25;-18597.69;;;-139.74;0.00
76496;BME280;65329;52.544;4.662;2023-05-10T07:04:53;-18597.69;;;-139.74;0.00
76496;BME280;65329;52.544;4.662;2023-05-10T07:07:20;-18597.69;;;-139.74;0.00
76496;BME280;65329;52.544;4.662;2023-05-10T07:09:47;-18597.69;;;-139.74;0.00
76496;BME280;65329;52.544;4.662;2023-05-10T07:12:15;-18597.69;;;-139.74;0.00
76496;BME280;65329;52.544;4.662;2023-05-10T07:14:42;-18597.69;;;-139.74;0.00
76496;BME280;65329;52.544;4.662;2023-05-10T07:17:09;-18597.69;;;-139.74;0.00
76496;BME280;65329;52.544;4.662;2023-05-10T07:19:36;-18597.69;;;-139.74;0.00
76496;BME280;65329;52.544;4.662;2023-05-10T07:22:03;-18596.16;;;-139.74;0.00
76496;BME280;65329;52.544;4.662;2023-05-10T07:24:31;-18596.16;;;-139.74;0.00
76496;BME280;65329;52.544;4.662;2023-05-10T07:26:58;-17809.88;;;-139.74;0.00
76496;BME280;65329;52.544;4.662;2023-05-10T07:29:27;-18596.16;;;-139.74;0.00
76496;BME280;65329;52.544;4.662;2023-05-10T07:31:55;-18071.97;;;-139.74;0.00
76496;BME280;65329;52.544;4.662;2023-05-10T07:34:24;-17547.72;;;-139.74;0.00
76496;BME280;65329;52.544;4.662;2023-05-10T07:36:52;-16499.03;;;-139.74;0.00
76496;BME280;65329;52.544;4.662;2023-05-10T07:39:19;-15974.56;;;-139.74;0.00
76496;BME280;65329;52.544;4.662;2023-05-10T07:41:54;-11776.25;;;-139.74;0.00
76496;BME280;65329;52.544;4.662;2023-05-10T07:44:21;-3892.03;;;-139.74;0.00
76496;BME280;65329;52.544;4.662;2023-05-10T07:46:49;2690.50;;;-139.74;0.00
76496;BME280;65329;52.544;4.662;2023-05-10T07:49:16;5063.00;;;-139.74;0.00
76496;BME280;65329;52.544;4.662;2023-05-10T07:51:43;6645.44;;;-139.74;0.00
76496;BME280;65329;52.544;4.662;2023-05-10T07:54:10;10604.44;;;-139.74;0.00
76496;BME280;65329;52.544;4.662;2023-05-10T07:56:37;7436.91;;;-139.74;0.00
76496;BME280;65329;52.544;4.662;2023-05-10T07:59:06;25420.41;;;-139.74;0.00
76496;BME280;65329;52.544;4.662;2023-05-10T08:01:36;24625.25;;;-139.74;0.00
76496;BME280;65329;52.544;4.662;2023-05-10T08:04:02;43487.13;;;-139.74;0.00
76496;BME280;65329;52.544;4.662;2023-05-10T08:06:30;61557.66;;;-139.74;0.00
76496;BME280;65329;52.544;4.662;2023-05-10T08:08:57;88954.91;;;-139.74;0.00
76496;BME280;65329;52.544;4.662;2023-05-10T08:11:24;87006.75;;;-139.74;0.00
76496;BME280;65329;52.544;4.662;2023-05-10T08:13:51;90247.16;;;-139.74;0.00
76496;BME280;65329;52.544;4.662;2023-05-10T08:16:19;86371.59;;;-139.74;0.00
76496;BME280;65329;52.544;4.662;2023-05-10T08:18:46;85059.56;;;-139.74;0.00
76496;BME280;65329;52.544;4.662;2023-05-10T08:21:14;79496.53;;;-139.74;0.00
76496;BME280;65329;52.544;4.662;2023-05-10T08:23:42;78554.00;;;-139.74;0.00
76496;BME280;65329;52.544;4.662;2023-05-10T08:26:10;82428.34;;;-139.74;0.00
76496;BME280;65329;52.544;4.662;2023-05-10T08:28:37;84584.47;;;-139.74;0.00
76496;BME280;65329;52.544;4.662;2023-05-10T08:31:05;74595.34;;;-139.74;0.00
76496;BME280;65329;52.544;4.662;2023-05-10T08:33:32;81648.97;;;-139.74;0.00
76496;BME280;65329;52.544;4.662;2023-05-10T08:35:59;103809.28;;;-139.74;0.00
76496;BME280;65329;52.544;4.662;2023-05-10T08:38:26;99587.34;;;-139.74;0.00
76496;BME280;65329;52.544;4.662;2023-05-10T08:40:54;105888.09;;;-139.74;0.00
76496;BME280;65329;52.544;4.662;2023-05-10T08:43:29;106942.69;;;-139.74;0.00
76496;BME280;65329;52.544;4.662;2023-05-10T08:46:00;107815.75;;;-139.74;0.00
76496;BME280;65329;52.544;4.662;2023-05-10T08:48:34;113743.91;;;-139.74;0.00
76496;BME280;65329;52.544;4.662;2023-05-10T08:51:01;107655.06;;;-139.74;0.00
76496;BME280;65329;52.544;4.662;2023-05-10T08:53:32;110907.81;;;-139.74;0.00
76496;BME280;65329;52.544;4.662;2023-05-10T08:56:01;104045.84;;;-139.74;0.00
76496;BME280;65329;52.544;4.662;2023-05-10T08:58:28;117940.31;;;-139.74;0.00
76496;BME280;65329;52.544;4.662;2023-05-10T09:00:56;116378.59;;;-139.74;0.00
76496;BME280;65329;52.544;4.662;2023-05-10T09:03:24;62107.34;;;-139.74;0.00
76496;BME280;65329;52.544;4.662;2023-05-10T09:05:51;91320.84;;;-139.74;0.00
76496;BME280;65329;52.544;4.662;2023-05-10T09:08:18;102086.19;;;-139.74;0.00
76496;BME280;65329;52.544;4.662;2023-05-10T09:10:47;113273.91;;;-139.74;0.00
76496;BME280;65329;52.544;4.662;2023-05-10T09:13:15;117940.31;;;-139.74;0.00
76496;BME280;65329;52.544;4.662;2023-05-10T09:15:45;117940.31;;;-139.74;0.00
76496;BME280;65329;52.544;4.662;2023-05-10T09:18:12;117940.31;;;-139.74;0.00
76496;BME280;65329;52.544;4.662;2023-05-10T09:20:40;117940.31;;;-139.74;0.00
76496;BME280;65329;52.544;4.662;2023-05-10T09:23:07;117940.31;;;-139.74;0.00
76496;BME280;65329;52.544;4.662;2023-05-10T09:25:35;117940.31;;;-139.74;0.00
76496;BME280;65329;52.544;4.662;2023-05-10T09:28:06;117940.31;;;-139.74;0.00
76496;BME280;65329;52.544;4.662;2023-05-10T09:30:32;117940.31;;;-139.74;0.00
76496;BME280;65329;52.544;4.662;2023-05-10T09:33:00;117940.31;;;-139.74;0.00
76496;BME280;65329;52.544;4.662;2023-05-10T09:35:31;117940.31;;;-139.74;0.00
76496;BME280;65329;52.544;4.662;2023-05-10T09:38:03;117940.31;;;-139.74;0.00
76496;BME280;65329;52.544;4.662;2023-05-10T09:40:31;117940.31;;;-139.74;0.00
76496;BME280;65329;52.544;4.662;2023-05-10T09:43:02;117940.31;;;-139.74;0.00
76496;BME280;65329;52.544;4.662;2023-05-10T09:45:31;117940.31;;;-139.74;0.00
76496;BME280;65329;52.544;4.662;2023-05-10T09:47:59;117366.00;;;-139.74;0.00
76496;BME280;65329;52.544;4.662;2023-05-10T09:50:28;116937.94;;;-139.74;0.00
76496;BME280;65329;52.544;4.662;2023-05-10T09:53:00;116086.25;;;-139.74;0.00
76496;BME280;65329;52.544;4.662;2023-05-10T09:55:42;110025.63;;;-139.74;0.00
76496;BME280;65329;52.544;4.662;2023-05-10T09:58:12;105431.69;;;-139.74;0.00
76496;BME280;65329;52.544;4.662;2023-05-10T10:00:41;108703.78;;;-139.74;0.00
76496;BME280;65329;52.544;4.662;2023-05-10T10:03:19;105619.72;;;-139.74;0.00
76496;BME280;65329;52.544;4.662;2023-05-10T10:05:47;109788.72;;;-139.74;0.00
76496;BME280;65329;52.544;4.662;2023-05-10T10:08:15;113801.09;;;-139.74;0.00
76496;BME280;65329;52.544;4.662;2023-05-10T10:10:42;111449.47;;;-139.74;0.00
76496;BME280;65329;52.544;4.662;2023-05-10T10:13:15;115014.47;;;-139.74;0.00
76496;BME280;65329;52.544;4.662;2023-05-10T10:15:43;116310.81;;;-139.74;0.00
76496;BME280;65329;52.544;4.662;2023-05-10T10:18:13;117940.31;;;-139.74;0.00
76496;BME280;65329;52.544;4.662;2023-05-10T10:20:41;117940.31;;;-139.74;0.00
76496;BME280;65329;52.544;4.662;2023-05-10T10:23:08;117777.13;;;-139.74;0.00
76496;BME280;65329;52.544;4.662;2023-05-10T10:25:37;117641.47;;;-139.74;0.00
76496;BME280;65329;52.544;4.662;2023-05-10T10:28:15;115541.84;;;-139.74;0.00
76496;BME280;65329;52.544;4.662;2023-05-10T10:30:48;116984.56;;;-139.74;0.00
76496;BME280;65329;52.544;4.662;2023-05-10T10:35:55;108828.56;;;-139.74;0.00
76496;BME280;65329;52.544;4.662;2023-05-10T10:38:24;112554.22;;;-139.74;0.00
76496;BME280;65329;52.544;4.662;2023-05-10T10:41:12;109386.88;;;-139.74;0.00
76496;BME280;65329;52.544;4.662;2023-05-10T10:47:21;109592.03;;;-139.74;0.00
76496;BME280;65329;52.544;4.662;2023-05-10T10:52:31;113947.19;;;-139.74;0.00
76496;BME280;65329;52.544;4.662;2023-05-10T10:57:43;117586.38;;;-139.74;0.00
76496;BME280;65329;52.544;4.662;2023-05-10T11:00:28;117940.31;;;-139.74;0.00
76496;BME280;65329;52.544;4.662;2023-05-10T11:03:07;117940.31;;;-139.74;0.00
76496;BME280;65329;52.544;4.662;2023-05-10T11:05:39;110213.91;;;-139.74;0.00
76496;BME280;65329;52.544;4.662;2023-05-10T11:10:39;92721.31;;;-139.74;0.00
76496;BME280;65329;52.544;4.662;2023-05-10T11:13:07;77349.44;;;-139.74;0.00
76496;BME280;65329;52.544;4.662;2023-05-10T11:15:37;89706.22;;;-139.74;0.00
76496;BME280;65329;52.544;4.662;2023-05-10T11:18:29;91453.50;;;-139.74;0.00
76496;BME280;65329;52.544;4.662;2023-05-10T11:21:01;99148.50;;;-139.74;0.00
76496;BME280;65329;52.544;4.662;2023-05-10T11:26:07;113987.41;;;-139.74;0.00
76496;BME280;65329;52.544;4.662;2023-05-10T11:28:48;100809.13;;;-139.74;0.00
76496;BME280;65329;52.544;4.662;2023-05-10T11:31:17;117940.31;;;-139.74;0.00
76496;BME280;65329;52.544;4.662;2023-05-10T11:33:45;117940.31;;;-139.74;0.00
76496;BME280;65329;52.544;4.662;2023-05-10T11:36:15;117940.31;;;-139.74;0.00
76496;BME280;65329;52.544;4.662;2023-05-10T11:38:43;117940.31;;;-139.74;0.00
76496;BME280;65329;52.544;4.662;2023-05-10T11:41:10;117940.31;;;-139.74;0.00
76496;BME280;65329;52.544;4.662;2023-05-10T11:43:42;117940.31;;;-139.74;0.00
76496;BME280;65329;52.544;4.662;2023-05-10T11:46:13;117940.31;;;-139.74;0.00
76496;BME280;65329;52.544;4.662;2023-05-10T11:48:40;117940.31;;;-139.74;0.00
76496;BME280;65329;52.544;4.662;2023-05-10T11:51:08;117940.31;;;-139.74;0.00
76496;BME280;65329;52.544;4.662;2023-05-10T11:53:36;117940.31;;;-139.74;0.00
76496;BME280;65329;52.544;4.662;2023-05-10T11:56:05;117940.31;;;-139.74;0.00
76496;BME280;65329;52.544;4.662;2023-05-10T11:58:37;117940.31;;;-139.74;0.00
76496;BME280;65329;52.544;4.662;2023-05-10T12:01:05;117940.31;;;-139.74;0.00
76496;BME280;65329;52.544;4.662;2023-05-10T12:03:33;117940.31;;;-139.74;0.00
76496;BME280;65329;52.544;4.662;2023-05-10T12:06:02;117940.31;;;-139.74;0.00
76496;BME280;65329;52.544;4.662;2023-05-10T12:08:30;117940.31;;;-139.74;0.00
76496;BME280;65329;52.544;4.662;2023-05-10T12:11:06;117940.31;;;-139.74;0.00
76496;BME280;65329;52.544;4.662;2023-05-10T12:13:40;112554.22;;;-139.74;0.00
76496;BME280;65329;52.544;4.662;2023-05-10T12:16:16;116342.59;;;-139.74;0.00
76496;BME280;65329;52.544;4.662;2023-05-10T12:18:44;117270.63;;;-139.74;0.00
76496;BME280;65329;52.544;4.662;2023-05-10T12:21:12;117940.31;;;-139.74;0.00
76496;BME280;65329;52.544;4.662;2023-05-10T12:23:39;117940.31;;;-139.74;0.00
76496;BME280;65329;52.544;4.662;2023-05-10T12:26:08;117529.16;;;-139.74;0.00
76496;BME280;65329;52.544;4.662;2023-05-10T12:28:37;108242.81;;;-139.74;0.00
76496;BME280;65329;52.544;4.662;2023-05-10T12:31:04;110224.47;;;-139.74;0.00
76496;BME280;65329;52.544;4.662;2023-05-10T12:33:50;109452.44;;;-139.74;0.00
76496;BME280;65329;52.544;4.662;2023-05-10T12:36:23;116181.59;;;-139.74;0.00
76496;BME280;65329;52.544;4.662;2023-05-10T12:38:50;117342.69;;;-139.74;0.00
76496;BME280;65329;52.544;4.662;2023-05-10T12:41:19;105668.34;;;-139.74;0.00
76496;BME280;65329;52.544;4.662;2023-05-10T12:43:46;105558.44;;;-139.74;0.00
76496;BME280;65329;52.544;4.662;2023-05-10T12:46:17;69966.16;;;-139.74;0.00
76496;BME280;65329;52.544;4.662;2023-05-10T12:48:44;100739.50;;;-139.74;0.00
76496;BME280;65329;52.544;4.662;2023-05-10T12:51:13;81394.81;;;-139.74;0.00
76496;BME280;65329;52.544;4.662;2023-05-10T12:53:43;54967.13;;;-139.74;0.00
76496;BME280;65329;52.544;4.662;2023-05-10T12:56:15;43919.88;;;-139.74;0.00
76496;BME280;65329;52.544;4.662;2023-05-10T12:58:41;41654.66;;;-139.74;0.00
76496;BME280;65329;52.544;4.662;2023-05-10T13:01:08;116327.75;;;-139.74;0.00
76496;BME280;65329;52.544;4.662;2023-05-10T13:03:35;117940.31;;;-139.74;0.00
76496;BME280;65329;52.544;4.662;2023-05-10T13:06:05;84605.47;;;-139.74;0.00
76496;BME280;65329;52.544;4.662;2023-05-10T13:08:32;106513.63;;;-139.74;0.00
76496;BME280;65329;52.544;4.662;2023-05-10T13:11:02;72859.56;;;-139.74;0.00
76496;BME280;65329;52.544;4.662;2023-05-10T13:13:29;81835.94;;;-139.74;0.00
76496;BME280;65329;52.544;4.662;2023-05-10T13:15:56;113930.25;;;-139.74;0.00
76496;BME280;65329;52.544;4.662;2023-05-10T13:18:26;86594.53;;;-139.74;0.00
76496;BME280;65329;52.544;4.662;2023-05-10T13:20:59;98899.56;;;-139.74;0.00
76496;BME280;65329;52.544;4.662;2023-05-10T13:23:28;117940.31;;;-139.74;0.00
76496;BME280;65329;52.544;4.662;2023-05-10T13:25:57;84130.44;;;-139.74;0.00
76496;BME280;65329;52.544;4.662;2023-05-10T13:28:25;90845.03;;;-139.74;0.00